Time;durP1;ratioP1;P1;durP2;ratioP2;P2;SDS_P1;SDS_P2;PMS_P1;PMS_P2;Temp;Humidity;BMP_temperature;BMP_pressure;BME280_temperature;BME280_humidity;BME280_pressure;Samples;Min_cycle;Max_cycle;Signal;HPM_P1;HPM_P2
2024/02/13 00:02:18;;;;;;;4.30;3.90;;;6.60;99.90;;;;;;4995847;28;20261;-58
2024/02/13 00:04:45;;;;;;;1.50;1.40;;;6.50;99.90;;;;;;5007185;28;20236;-58
2024/02/13 00:07:13;;;;;;;3.13;1.43;;;6.60;99.90;;;;;;4994368;28;20201;-58
2024/02/13 00:09:42;;;;;;;3.00;1.50;;;6.80;99.90;;;;;;5012441;28;20252;-58
2024/02/13 00:12:11;;;;;;;1.90;1.80;;;6.50;99.90;;;;;;5009287;28;20263;-58
2024/02/13 00:14:38;;;;;;;6.10;5.30;;;6.60;99.90;;;;;;5005791;28;20203;-58
2024/02/13 00:17:05;;;;;;;4.57;4.13;;;6.50;99.90;;;;;;4998731;28;20244;-59
2024/02/13 00:19:32;;;;;;;3.40;3.10;;;6.40;99.90;;;;;;5005198;28;20229;-58
2024/02/13 00:21:59;;;;;;;3.77;2.97;;;6.50;99.90;;;;;;5006263;28;20299;-59
2024/02/13 00:24:26;;;;;;;6.13;5.27;;;6.50;99.90;;;;;;5005577;28;20564;-59
2024/02/13 00:26:53;;;;;;;8.67;7.47;;;6.50;99.90;;;;;;5013104;28;20201;-60
2024/02/13 00:29:22;;;;;;;9.90;5.07;;;6.50;99.90;;;;;;5004484;28;20216;-59
2024/02/13 00:31:50;;;;;;;4.50;4.10;;;6.40;99.90;;;;;;5002902;28;20455;-60
2024/02/13 00:34:19;;;;;;;3.77;3.43;;;6.40;99.90;;;;;;5001089;28;20237;-59
2024/02/13 00:36:49;;;;;;;3.13;2.93;;;6.40;99.90;;;;;;5007309;28;20205;-59
2024/02/13 00:39:16;;;;;;;4.07;1.73;;;6.40;99.90;;;;;;5005505;28;20659;-59
2024/02/13 00:41:43;;;;;;;2.00;1.83;;;6.40;99.90;;;;;;5003158;28;20284;-59
2024/02/13 00:44:11;;;;;;;1.87;1.77;;;6.40;99.90;;;;;;5011487;28;20205;-59
2024/02/13 00:46:40;;;;;;;4.73;2.53;;;6.60;99.90;;;;;;5001935;28;20217;-60
2024/02/13 00:49:06;;;;;;;2.47;2.03;;;6.60;99.90;;;;;;5012172;28;20223;-59
2024/02/13 00:51:33;;;;;;;4.97;3.00;;;6.70;99.90;;;;;;5004608;28;20274;-60
2024/02/13 00:54:00;;;;;;;4.17;3.87;;;6.60;99.90;;;;;;4996399;28;20224;-59
2024/02/13 00:56:27;;;;;;;6.40;5.47;;;6.50;99.90;;;;;;5008553;28;20201;-60
2024/02/13 00:59:02;;;;;;;4.07;1.57;;;6.50;99.90;;;;;;5000649;28;20238;-60
2024/02/13 01:01:30;;;;;;;3.17;2.87;;;6.50;99.90;;;;;;5003033;28;20229;-59
2024/02/13 01:03:58;;;;;;;2.93;1.90;;;6.40;99.90;;;;;;5006308;28;20262;-59
2024/02/13 01:06:25;;;;;;;5.17;4.30;;;6.40;99.90;;;;;;5005095;28;20201;-59
2024/02/13 01:08:52;;;;;;;7.97;5.10;;;6.40;99.90;;;;;;4999974;28;20589;-59
2024/02/13 01:11:19;;;;;;;5.60;3.77;;;6.30;99.90;;;;;;4996462;28;20201;-60
2024/02/13 01:13:46;;;;;;;3.03;2.73;;;6.40;99.90;;;;;;4992456;28;20205;-59
2024/02/13 01:16:14;;;;;;;1.63;0.67;;;6.40;99.90;;;;;;5005922;28;20212;-59
2024/02/13 01:18:41;;;;;;;3.37;0.97;;;6.40;99.90;;;;;;4997319;28;20224;-59
2024/02/13 01:21:14;;;;;;;2.63;1.40;;;6.50;99.90;;;;;;5002966;28;20252;-59
2024/02/13 01:23:41;;;;;;;4.50;4.20;;;6.50;99.90;;;;;;5007961;28;20255;-59
2024/02/13 01:26:08;;;;;;;6.77;6.17;;;6.40;99.90;;;;;;4987398;28;20259;-59
2024/02/13 01:28:35;;;;;;;4.13;2.17;;;6.40;99.90;;;;;;4996789;28;20291;-59
2024/02/13 01:31:03;;;;;;;1.50;1.40;;;6.40;99.90;;;;;;4995549;28;20256;-60
2024/02/13 01:33:30;;;;;;;3.47;1.30;;;6.40;99.90;;;;;;5006652;28;20254;-59
2024/02/13 01:35:57;;;;;;;4.47;1.10;;;6.40;99.90;;;;;;5011957;28;20686;-59
2024/02/13 01:38:30;;;;;;;1.93;1.13;;;;;;;;;;5011821;28;20205;-59
2024/02/13 01:40:57;;;;;;;1.80;1.00;;;6.30;99.90;;;;;;5011814;28;20312;-59
2024/02/13 01:43:25;;;;;;;1.27;1.17;;;6.30;99.90;;;;;;5010648;28;20203;-59
2024/02/13 01:45:52;;;;;;;2.73;2.50;;;6.20;99.90;;;;;;5012022;28;20204;-59
2024/02/13 01:48:21;;;;;;;3.87;3.47;;;6.20;99.90;;;;;;5011348;28;20689;-59
2024/02/13 01:50:48;;;;;;;1.37;0.90;;;6.10;99.90;;;;;;5011934;28;20615;-58
2024/02/13 01:53:18;;;;;;;2.83;1.40;;;6.20;99.90;;;;;;5010884;28;20209;-59
2024/02/13 01:55:47;;;;;;;1.80;1.70;;;6.20;99.90;;;;;;5011899;28;20205;-59
2024/02/13 01:58:15;;;;;;;2.00;1.00;;;6.20;99.90;;;;;;5010778;28;20205;-59
2024/02/13 02:00:43;;;;;;;3.60;1.40;;;6.10;99.90;;;;;;5011584;28;20217;-59
2024/02/13 02:03:14;;;;;;;3.63;1.80;;;6.10;99.90;;;;;;5010886;28;20212;-58
2024/02/13 02:05:41;;;;;;;2.50;1.20;;;6.10;99.90;;;;;;5011636;28;20214;-59
2024/02/13 02:08:09;;;;;;;3.23;1.00;;;6.10;99.90;;;;;;5011489;28;20252;-59
2024/02/13 02:10:36;;;;;;;2.90;0.97;;;6.10;99.90;;;;;;5011999;28;20256;-59
2024/02/13 02:13:05;;;;;;;2.47;2.37;;;6.00;99.90;;;;;;5014093;28;20635;-59
2024/02/13 02:15:31;;;;;;;4.30;3.80;;;5.90;99.90;;;;;;5015545;28;20565;-59
2024/02/13 02:17:58;;;;;;;2.63;1.03;;;6.00;99.90;;;;;;5011094;28;20716;-59
2024/02/13 02:20:26;;;;;;;1.87;1.03;;;6.00;99.90;;;;;;5002271;28;20716;-59
2024/02/13 02:22:53;;;;;;;1.30;1.00;;;6.10;99.90;;;;;;5012572;28;20271;-58
2024/02/13 02:25:22;;;;;;;3.70;0.80;;;6.10;99.90;;;;;;5015352;28;20208;-59
2024/02/13 02:27:50;;;;;;;1.37;0.80;;;6.00;99.90;;;;;;5015003;28;20213;-59
2024/02/13 02:30:17;;;;;;;6.63;1.47;;;6.00;99.90;;;;;;5015131;28;20716;-59
2024/02/13 02:32:44;;;;;;;1.23;1.10;;;5.90;99.90;;;;;;5014402;28;20199;-58
2024/02/13 02:35:11;;;;;;;2.80;1.10;;;6.00;99.90;;;;;;5014104;28;20640;-59
2024/02/13 02:37:40;;;;;;;4.37;1.43;;;5.90;99.90;;;;;;5014905;28;20676;-58
2024/02/13 02:40:08;;;;;;;4.80;1.80;;;5.80;99.90;;;;;;5014974;28;20227;-59
2024/02/13 02:42:36;;;;;;;1.00;0.80;;;5.90;99.90;;;;;;5014756;28;20609;-59
2024/02/13 02:45:06;;;;;;;5.87;5.20;;;5.90;99.90;;;;;;5014086;28;20219;-59
2024/02/13 02:47:34;;;;;;;3.00;2.67;;;5.90;99.90;;;;;;5014764;28;20210;-58
2024/02/13 02:50:02;;;;;;;3.93;2.27;;;5.80;99.90;;;;;;5014418;28;20225;-59
2024/02/13 02:52:30;;;;;;;3.10;2.10;;;5.90;99.90;;;;;;5014626;28;20208;-59
2024/02/13 02:54:57;;;;;;;4.17;2.37;;;5.90;99.90;;;;;;5014022;28;20620;-59
2024/02/13 02:57:28;;;;;;;3.10;2.13;;;5.80;99.90;;;;;;5014636;28;20253;-58
2024/02/13 02:59:56;;;;;;;2.50;2.27;;;5.90;99.90;;;;;;5008166;28;20236;-59
2024/02/13 03:02:27;;;;;;;3.17;1.50;;;5.90;99.90;;;;;;4994805;28;20284;-59
2024/02/13 03:04:55;;;;;;;1.97;1.27;;;5.90;99.90;;;;;;4994293;28;20288;-59
2024/02/13 03:07:24;;;;;;;4.33;1.10;;;6.00;99.90;;;;;;4994701;28;20751;-59
2024/02/13 03:09:50;;;;;;;1.63;1.00;;;6.00;99.90;;;;;;4993568;28;20329;-59
2024/02/13 03:12:17;;;;;;;1.17;0.80;;;6.10;99.90;;;;;;4994787;28;20721;-59
2024/02/13 03:14:44;;;;;;;3.30;0.90;;;6.10;99.90;;;;;;5004515;28;20254;-59
2024/02/13 03:17:12;;;;;;;2.07;1.90;;;6.00;99.90;;;;;;5014168;28;20239;-59
2024/02/13 03:19:39;;;;;;;6.43;5.47;;;5.90;99.90;;;;;;5014153;28;20279;-59
2024/02/13 03:22:06;;;;;;;2.03;1.77;;;6.00;99.90;;;;;;5013838;28;20224;-59
2024/02/13 03:24:33;;;;;;;3.80;3.37;;;5.90;99.90;;;;;;5012858;28;20620;-59
2024/02/13 03:27:01;;;;;;;3.23;3.03;;;5.90;99.90;;;;;;5014056;28;20213;-59
2024/02/13 03:29:28;;;;;;;1.23;1.13;;;6.00;99.90;;;;;;5013173;28;20277;-59
2024/02/13 03:31:55;;;;;;;2.27;1.30;;;5.90;99.90;;;;;;5013991;28;20729;-59
2024/02/13 03:34:23;;;;;;;4.83;2.13;;;6.10;99.90;;;;;;5011053;28;20565;-59
2024/02/13 03:36:50;;;;;;;4.13;1.17;;;6.10;99.90;;;;;;5014243;28;20251;-59
2024/02/13 03:39:17;;;;;;;1.70;1.53;;;6.10;99.90;;;;;;5011797;28;20224;-59
2024/02/13 03:41:46;;;;;;;3.53;1.57;;;;;;;;;;5013622;28;20224;-59
2024/02/13 03:44:13;;;;;;;3.20;2.60;;;5.90;99.90;;;;;;4974352;28;20199;-58
2024/02/13 03:46:40;;;;;;;3.80;1.23;;;5.90;99.90;;;;;;4989619;28;20253;-58
2024/02/13 03:49:08;;;;;;;3.17;2.50;;;5.80;99.90;;;;;;4993904;28;20871;-59
2024/02/13 03:51:37;;;;;;;10.07;6.23;;;5.80;99.90;;;;;;4993999;28;20676;-58
2024/02/13 03:54:05;;;;;;;6.80;1.90;;;5.90;99.90;;;;;;4993203;28;20217;-59
2024/02/13 03:56:32;;;;;;;2.70;2.00;;;5.90;99.90;;;;;;4998873;28;20271;-59
2024/02/13 03:58:59;;;;;;;7.43;6.40;;;5.80;99.90;;;;;;5005260;28;20652;-59
2024/02/13 04:01:26;;;;;;;1.83;1.07;;;5.80;99.90;;;;;;4995675;28;20234;-58
2024/02/13 04:03:53;;;;;;;3.07;0.80;;;5.80;99.90;;;;;;4993023;28;20241;-59
2024/02/13 04:06:21;;;;;;;2.23;0.90;;;5.80;99.90;;;;;;4994870;28;20209;-59
2024/02/13 04:08:49;;;;;;;0.80;0.80;;;5.80;99.90;;;;;;4993915;28;20230;-59
2024/02/13 04:11:17;;;;;;;4.20;1.60;;;6.00;99.90;;;;;;5004389;28;20204;-60
2024/02/13 04:13:44;;;;;;;4.43;2.13;;;5.90;99.90;;;;;;5012792;28;20703;-59
2024/02/13 04:16:11;;;;;;;3.90;1.93;;;5.80;99.90;;;;;;5013838;28;20264;-59
2024/02/13 04:18:39;;;;;;;3.40;3.07;;;5.90;99.90;;;;;;5016013;28;20233;-59
2024/02/13 04:21:06;;;;;;;5.03;1.63;;;5.80;99.90;;;;;;5013046;28;20631;-59
2024/02/13 04:23:35;;;;;;;4.77;1.20;;;;;;;;;;5012105;28;20281;-59
2024/02/13 04:26:05;;;;;;;1.80;0.80;;;;;;;;;;5012652;28;20196;-59
2024/02/13 04:28:33;;;;;;;4.23;1.17;;;;;;;;;;5013234;28;20205;-59
2024/02/13 04:31:00;;;;;;;2.43;1.43;;;;;;;;;;5012878;28;20718;-59
2024/02/13 04:33:27;;;;;;;4.20;1.73;;;;;;;;;;5011813;28;20200;-59
2024/02/13 04:35:54;;;;;;;2.90;2.10;;;;;;;;;;5012697;28;20207;-59
2024/02/13 04:38:23;;;;;;;10.53;8.77;;;;;;;;;;5012212;28;20263;-59
2024/02/13 04:40:50;;;;;;;2.43;1.93;;;;;;;;;;5013183;28;20259;-59
2024/02/13 04:43:19;;;;;;;4.73;3.10;;;;;;;;;;5012090;28;20228;-60
2024/02/13 04:45:46;;;;;;;1.47;1.20;;;;;;;;;;5012796;28;20253;-59
2024/02/13 04:48:13;;;;;;;2.20;0.87;;;5.50;99.90;;;;;;5012725;28;20711;-60
2024/02/13 04:50:40;;;;;;;2.03;1.33;;;;;;;;;;5013008;28;20806;-59
2024/02/13 04:53:08;;;;;;;4.83;2.13;;;;;;;;;;5012048;28;20200;-59
2024/02/13 04:55:35;;;;;;;1.67;1.57;;;;;;;;;;5012616;28;20211;-59
2024/02/13 04:58:02;;;;;;;1.30;1.20;;;;;;;;;;5012369;28;20681;-59
2024/02/13 05:00:36;;;;;;;5.90;1.80;;;;;;;;;;5012143;28;20236;-59
2024/02/13 05:03:16;;;;;;;2.03;1.20;;;;;;;;;;5011445;28;20232;-59
2024/02/13 05:08:29;;;;;;;1.20;1.03;;;;;;;;;;5011117;28;20199;-59
2024/02/13 05:10:57;;;;;;;2.50;1.40;;;;;;;;;;5011927;28;20202;-60
2024/02/13 05:13:24;;;;;;;4.00;1.10;;;;;;;;;;5011342;28;20206;-60
2024/02/13 05:15:54;;;;;;;2.90;0.90;;;;;;;;;;5012531;28;20208;-59
2024/02/13 05:18:21;;;;;;;1.90;1.00;;;;;;;;;;5011906;28;20258;-59
2024/02/13 05:20:48;;;;;;;1.33;1.33;;;;;;;;;;5012157;28;20208;-59
2024/02/13 05:23:15;;;;;;;1.57;1.47;;;;;;;;;;5008792;28;20225;-59
2024/02/13 05:25:44;;;;;;;1.60;1.50;;;;;;;;;;5003423;28;20210;-60
2024/02/13 05:28:11;;;;;;;4.37;4.00;;;5.60;99.90;;;;;;5012028;28;20245;-59
2024/02/13 05:30:38;;;;;;;4.83;3.70;;;5.50;99.90;;;;;;5012106;28;20221;-59
2024/02/13 05:33:07;;;;;;;4.20;3.70;;;;;;;;;;5010985;28;20703;-59
2024/02/13 05:35:37;;;;;;;4.60;2.57;;;;;;;;;;5012207;28;20208;-59
2024/02/13 05:38:05;;;;;;;4.87;2.10;;;;;;;;;;5009514;28;20687;-59
2024/02/13 05:40:32;;;;;;;3.47;2.73;;;;;;;;;;5011697;28;20253;-60
2024/02/13 05:43:00;;;;;;;5.23;2.60;;;;;;;;;;5003334;28;20611;-59
2024/02/13 05:45:27;;;;;;;4.77;2.60;;;;;;;;;;5002772;28;20629;-59
2024/02/13 05:47:54;;;;;;;2.57;2.37;;;;;;;;;;5006285;28;20251;-59
2024/02/13 05:50:23;;;;;;;3.30;2.67;;;;;;;;;;5005035;28;20225;-59
2024/02/13 05:52:53;;;;;;;6.67;3.17;;;;;;;;;;5004906;28;20225;-58
2024/02/13 05:55:20;;;;;;;7.40;3.70;;;;;;;;;;5011803;28;20812;-58
2024/02/13 05:57:47;;;;;;;32.77;17.37;;;;;;;;;;5012113;28;20199;-59
2024/02/13 06:00:16;;;;;;;74.67;35.97;;;;;;;;;;5015298;28;20303;-59
2024/02/13 06:02:43;;;;;;;74.37;38.33;;;;;;;;;;5008119;28;20241;-59
2024/02/13 06:05:11;;;;;;;22.07;11.20;;;;;;;;;;5000197;28;20200;-59
2024/02/13 06:07:40;;;;;;;11.00;6.83;;;;;;;;;;5012970;28;20223;-59
2024/02/13 06:10:10;;;;;;;5.83;4.70;;;;;;;;;;5011047;28;20264;-59
2024/02/13 06:12:38;;;;;;;4.30;2.87;;;;;;;;;;5007928;28;20192;-59
2024/02/13 06:15:06;;;;;;;4.20;2.27;;;5.40;99.90;;;;;;5014607;28;20660;-59
2024/02/13 06:17:33;;;;;;;3.63;1.90;;;;;;;;;;5011136;28;20210;-59
2024/02/13 06:20:04;;;;;;;2.93;2.00;;;;;;;;;;5011053;28;20225;-59
2024/02/13 06:22:32;;;;;;;3.17;2.07;;;;;;;;;;5015434;28;20229;-58
2024/02/13 06:25:04;;;;;;;4.20;1.53;;;5.60;99.90;;;;;;5013321;28;20262;-60
2024/02/13 06:27:31;;;;;;;2.80;1.83;;;5.40;99.90;;;;;;5014710;28;20259;-60
2024/02/13 06:29:58;;;;;;;2.20;1.77;;;5.40;99.90;;;;;;5014814;28;20224;-63
2024/02/13 06:32:28;;;;;;;3.13;1.50;;;5.40;99.90;;;;;;5006604;28;20199;-61
2024/02/13 06:34:56;;;;;;;4.10;1.50;;;;;;;;;;5013885;28;20710;-60
2024/02/13 06:37:26;;;;;;;5.57;2.93;;;;;;;;;;5014906;28;20220;-61
2024/02/13 06:39:53;;;;;;;5.07;2.97;;;;;;;;;;5015043;28;20232;-60
2024/02/13 06:42:25;;;;;;;5.03;2.17;;;;;;;;;;5015068;28;20225;-60
2024/02/13 06:44:52;;;;;;;3.67;1.87;;;;;;;;;;5013998;28;20209;-60
2024/02/13 06:47:19;;;;;;;7.57;3.43;;;5.50;99.90;;;;;;5013881;28;20613;-60
2024/02/13 06:49:46;;;;;;;6.13;2.23;;;5.50;99.90;;;;;;5014665;28;20290;-60
2024/02/13 06:52:13;;;;;;;3.80;3.03;;;5.60;99.90;;;;;;5014836;28;20281;-60
2024/02/13 06:54:41;;;;;;;2.10;1.90;;;5.60;99.90;;;;;;5013790;28;20251;-61
2024/02/13 06:57:09;;;;;;;4.27;2.87;;;5.60;99.90;;;;;;5013766;28;20230;-61
2024/02/13 06:59:37;;;;;;;3.60;2.77;;;5.60;99.90;;;;;;5013109;28;20724;-61
2024/02/13 07:02:05;;;;;;;5.97;3.27;;;5.60;99.90;;;;;;5014685;28;20220;-61
2024/02/13 07:04:32;;;;;;;3.77;2.77;;;5.70;99.90;;;;;;5013847;28;20209;-61
2024/02/13 07:07:05;;;;;;;6.57;3.17;;;5.60;99.90;;;;;;5014652;28;20209;-62
2024/02/13 07:09:33;;;;;;;8.70;5.57;;;5.70;99.90;;;;;;5014304;28;20231;-60
2024/02/13 07:12:00;;;;;;;8.33;4.70;;;5.80;99.90;;;;;;5014360;28;20209;-61
2024/02/13 07:14:29;;;;;;;16.03;6.60;;;5.90;99.90;;;;;;5012269;28;20232;-62
2024/02/13 07:16:57;;;;;;;12.53;5.97;;;5.90;99.90;;;;;;5014416;28;20275;-62
2024/02/13 07:19:25;;;;;;;13.40;7.77;;;6.00;99.90;;;;;;5014243;28;20254;-62
2024/02/13 07:21:52;;;;;;;13.47;6.60;;;6.10;99.90;;;;;;5014216;28;20688;-64
2024/02/13 07:24:19;;;;;;;9.40;6.87;;;6.30;99.90;;;;;;5013327;28;20264;-62
2024/02/13 07:26:46;;;;;;;4.87;4.27;;;6.40;99.90;;;;;;5014052;28;20207;-63
2024/02/13 07:29:13;;;;;;;4.40;4.00;;;6.30;99.90;;;;;;5013332;28;20217;-59
2024/02/13 07:31:40;;;;;;;4.83;3.17;;;6.40;99.90;;;;;;5014059;28;20208;-61
2024/02/13 07:34:08;;;;;;;3.27;2.60;;;6.30;99.90;;;;;;5013169;28;20209;-59
2024/02/13 07:36:35;;;;;;;3.83;3.43;;;6.40;99.90;;;;;;5014089;28;20208;-59
2024/02/13 07:39:03;;;;;;;5.03;2.70;;;6.30;99.90;;;;;;5013750;28;20652;-60
2024/02/13 07:41:34;;;;;;;3.40;2.90;;;6.30;99.90;;;;;;5013713;28;20208;-60
2024/02/13 07:44:01;;;;;;;6.20;2.93;;;6.40;99.90;;;;;;4994135;28;20615;-63
2024/02/13 07:46:28;;;;;;;4.87;3.13;;;6.40;99.90;;;;;;4994133;28;20208;-64
2024/02/13 07:48:55;;;;;;;3.70;3.03;;;6.50;99.90;;;;;;4992078;28;20225;-65
2024/02/13 07:51:23;;;;;;;4.57;3.50;;;;;;;;;;4995074;28;20206;-62
2024/02/13 07:53:50;;;;;;;4.23;3.30;;;6.50;99.90;;;;;;4995045;28;20677;-63
2024/02/13 07:56:20;;;;;;;4.57;4.07;;;6.60;99.90;;;;;;4996368;28;20205;-65
2024/02/13 07:58:47;;;;;;;7.20;4.30;;;6.70;99.90;;;;;;5013731;28;20233;-65
2024/02/13 08:01:22;;;;;;;9.33;4.70;;;7.10;99.90;;;;;;5013414;28;20205;-61
2024/02/13 08:03:49;;;;;;;4.00;3.67;;;7.30;99.90;;;;;;5012552;28;20254;-61
2024/02/13 08:06:16;;;;;;;7.70;3.47;;;7.40;99.90;;;;;;5013571;28;20200;-60
2024/02/13 08:08:46;;;;;;;2.90;2.70;;;7.30;99.90;;;;;;5012974;28;20284;-61
2024/02/13 08:11:13;;;;;;;6.30;4.00;;;7.20;99.90;;;;;;5014440;28;20206;-60
2024/02/13 08:13:40;;;;;;;6.07;3.67;;;7.50;99.90;;;;;;5012386;28;20216;-60
2024/02/13 08:16:08;;;;;;;8.33;3.97;;;8.10;99.90;;;;;;5013192;28;20266;-60
2024/02/13 08:18:35;;;;;;;3.93;3.23;;;8.70;99.90;;;;;;5012930;28;20221;-68
2024/02/13 08:21:02;;;;;;;2.90;2.77;;;;;;;;;;5013012;28;20746;-59
2024/02/13 08:23:30;;;;;;;3.70;3.27;;;;;;;;;;5010303;28;20221;-61
2024/02/13 08:25:58;;;;;;;6.20;3.03;;;9.20;99.90;;;;;;5012143;28;20236;-61
2024/02/13 08:28:26;;;;;;;3.03;2.80;;;;;;;;;;5012866;28;20648;-61
2024/02/13 08:30:53;;;;;;;5.90;2.87;;;;;;;;;;5012496;28;20707;-61
2024/02/13 08:33:21;;;;;;;5.77;2.83;;;9.00;99.90;;;;;;5012044;28;20201;-60
2024/02/13 08:35:52;;;;;;;3.43;2.23;;;9.00;99.90;;;;;;5013132;28;20209;-61
2024/02/13 08:38:20;;;;;;;3.43;2.50;;;8.90;99.90;;;;;;5012334;28;20311;-61
2024/02/13 08:40:47;;;;;;;3.13;2.40;;;8.80;99.90;;;;;;4993260;28;20297;-61
2024/02/13 08:43:15;;;;;;;2.30;2.20;;;8.80;99.90;;;;;;4992331;28;20225;-61
2024/02/13 08:45:43;;;;;;;3.83;2.67;;;8.90;99.90;;;;;;4993258;28;20210;-61
2024/02/13 08:48:10;;;;;;;2.77;2.50;;;9.10;99.90;;;;;;4993463;28;20209;-61
2024/02/13 08:50:37;;;;;;;4.03;2.70;;;9.30;99.90;;;;;;4994061;28;20227;-61
2024/02/13 08:53:04;;;;;;;4.57;2.07;;;9.70;99.90;;;;;;4997139;28;20256;-61
2024/02/13 08:55:31;;;;;;;2.57;1.47;;;10.10;99.90;;;;;;5003348;28;20344;-61
2024/02/13 08:57:58;;;;;;;4.37;1.67;;;10.40;99.90;;;;;;4992776;28;20682;-61
2024/02/13 09:00:28;;;;;;;3.13;1.03;;;10.70;99.90;;;;;;4992543;28;20231;-61
2024/02/13 09:02:54;;;;;;;0.90;0.80;;;10.70;99.90;;;;;;4991749;28;20201;-61
2024/02/13 09:05:22;;;;;;;2.47;1.03;;;;;;;;;;4992727;28;20240;-61
2024/02/13 09:07:49;;;;;;;2.07;0.93;;;;;;;;;;5002167;28;20201;-61
2024/02/13 09:10:16;;;;;;;3.30;0.80;;;;;;;;;;5012328;28;20246;-61
2024/02/13 09:12:45;;;;;;;5.80;1.10;;;10.70;99.90;;;;;;5011580;28;20208;-61
2024/02/13 09:15:12;;;;;;;1.43;1.20;;;;;;;;;;5012157;28;20669;-61
2024/02/13 09:17:42;;;;;;;1.37;1.27;;;11.20;99.90;;;;;;5012079;28;20217;-61
2024/02/13 09:20:14;;;;;;;1.80;0.90;;;11.90;99.90;;;;;;5011886;28;20222;-61
2024/02/13 09:22:44;;;;;;;5.57;1.33;;;12.60;99.90;;;;;;5010141;28;20267;-61
2024/02/13 09:25:12;;;;;;;2.87;0.77;;;13.20;99.90;;;;;;4973161;28;20223;-61
2024/02/13 09:27:39;;;;;;;3.50;1.03;;;13.50;99.90;;;;;;4972868;28;20217;-61
2024/02/13 09:30:07;;;;;;;3.07;0.87;;;13.90;99.90;;;;;;4972837;28;20234;-61
2024/02/13 09:32:36;;;;;;;2.47;1.07;;;14.10;99.90;;;;;;4973018;28;20635;-61
2024/02/13 09:35:05;;;;;;;4.27;1.67;;;14.20;99.90;;;;;;4972147;28;20239;-61
2024/02/13 09:37:34;;;;;;;4.40;1.67;;;;;;;;;;5004535;28;20202;-61
2024/02/13 09:40:03;;;;;;;2.47;1.00;;;;;;;;;;4992040;28;20227;-61
2024/02/13 09:42:32;;;;;;;1.20;0.97;;;;;;;;;;4992160;28;20210;-61
2024/02/13 09:44:59;;;;;;;3.00;1.33;;;13.60;99.90;;;;;;4991485;28;20349;-61
2024/02/13 09:47:28;;;;;;;4.53;1.10;;;;;;;;;;4992519;28;20258;-60
2024/02/13 09:49:55;;;;;;;4.27;1.03;;;;;;;;;;4990061;28;20276;-60
2024/02/13 09:52:29;;;;;;;2.33;0.80;;;;;;;;;;4992197;28;20239;-60
2024/02/13 09:54:57;;;;;;;3.97;1.23;;;;;;;;;;4990308;28;20208;-60
2024/02/13 09:57:25;;;;;;;4.00;1.53;;;15.00;99.90;;;;;;4992176;28;20576;-60
2024/02/13 09:59:52;;;;;;;1.77;1.00;;;15.20;99.90;;;;;;4992194;28;20806;-61
2024/02/13 10:02:22;;;;;;;2.47;1.20;;;15.40;99.90;;;;;;4992250;28;20262;-61
2024/02/13 10:04:49;;;;;;;2.60;1.13;;;15.10;99.90;;;;;;4999687;28;20215;-60
2024/02/13 10:07:16;;;;;;;3.27;1.10;;;15.10;99.90;;;;;;5011535;28;20209;-60
2024/02/13 10:09:44;;;;;;;1.63;0.97;;;;;;;;;;5011496;28;20231;-60
2024/02/13 10:12:12;;;;;;;2.47;1.10;;;;;;;;;;5010393;28;20226;-60
2024/02/13 10:14:39;;;;;;;1.87;1.77;;;15.40;99.90;;;;;;4991229;28;20234;-60
2024/02/13 10:17:11;;;;;;;8.10;2.10;;;;;;;;;;4992043;28;20255;-61
2024/02/13 10:19:38;;;;;;;6.77;1.83;;;15.10;99.90;;;;;;4992039;28;20255;-60
2024/02/13 10:22:06;;;;;;;1.40;1.30;;;15.40;99.90;;;;;;4992217;28;20236;-61
2024/02/13 10:24:33;;;;;;;6.97;1.80;;;15.20;99.90;;;;;;4991354;28;20266;-60
2024/02/13 10:27:03;;;;;;;4.37;1.17;;;15.30;99.90;;;;;;4991992;28;20208;-61
2024/02/13 10:29:40;;;;;;;3.63;1.37;;;15.40;99.90;;;;;;4991850;28;20224;-60
2024/02/13 10:32:08;;;;;;;3.20;1.33;;;;;;;;;;4993918;28;20246;-60
2024/02/13 10:34:38;;;;;;;1.93;1.40;;;;;;;;;;5014435;28;20237;-60
2024/02/13 10:37:08;;;;;;;5.37;1.67;;;;;;;;;;5015376;28;20199;-60
2024/02/13 10:39:36;;;;;;;2.50;1.33;;;;;;;;;;5014883;28;20225;-60
2024/02/13 10:42:09;;;;;;;1.93;1.33;;;;;;;;;;5014946;28;20275;-61
2024/02/13 10:44:39;;;;;;;2.03;1.73;;;;;;;;;;5013827;28;20257;-61
2024/02/13 10:47:10;;;;;;;1.23;1.20;;;;;;;;;;5014553;28;20261;-61
2024/02/13 10:49:40;;;;;;;2.70;1.73;;;;;;;;;;5010039;28;20224;-60
2024/02/13 10:52:08;;;;;;;1.73;1.43;;;;;;;;;;4995013;28;20634;-61
2024/02/13 10:54:39;;;;;;;2.03;1.30;;;;;;;;;;4994187;28;20230;-61
2024/02/13 10:57:08;;;;;;;5.23;1.80;;;;;;;;;;4994894;28;20668;-61
2024/02/13 10:59:35;;;;;;;2.33;1.50;;;;;;;;;;4994700;28;20294;-59
2024/02/13 11:02:04;;;;;;;4.30;1.87;;;;;;;;;;4994935;28;20248;-60
2024/02/13 11:04:31;;;;;;;3.57;1.03;;;14.60;99.90;;;;;;4994006;28;20228;-60
2024/02/13 11:06:58;;;;;;;1.50;1.40;;;14.00;99.90;;;;;;4994994;28;20207;-60
2024/02/13 11:09:26;;;;;;;2.77;1.73;;;13.90;99.90;;;;;;4994856;28;20251;-59
2024/02/13 11:11:54;;;;;;;3.23;1.80;;;;;;;;;;4994876;28;21041;-60
2024/02/13 11:14:25;;;;;;;1.17;1.00;;;14.00;99.90;;;;;;4994125;28;20204;-60
2024/02/13 11:16:56;;;;;;;1.37;1.27;;;13.40;99.90;;;;;;5014660;28;20255;-59
2024/02/13 11:19:24;;;;;;;2.73;1.43;;;13.50;99.90;;;;;;5014219;28;20783;-59
2024/02/13 11:21:53;;;;;;;1.07;0.97;;;13.70;99.90;;;;;;5014307;28;20206;-59
2024/02/13 11:24:21;;;;;;;1.70;1.00;;;13.40;99.90;;;;;;5013262;28;20227;-60
2024/02/13 11:26:48;;;;;;;2.50;1.07;;;13.30;99.90;;;;;;5014326;28;20251;-59
2024/02/13 11:29:19;;;;;;;2.43;1.00;;;;;;;;;;5013965;28;20638;-60
2024/02/13 11:31:57;;;;;;;2.73;0.80;;;13.40;99.90;;;;;;5006911;28;20206;-59
2024/02/13 11:34:40;;;;;;;3.57;1.30;;;12.90;99.90;;;;;;4993354;28;20268;-60
2024/02/13 11:37:27;;;;;;;1.13;0.67;;;12.60;99.90;;;;;;4994780;28;20239;-59
2024/02/13 11:39:54;;;;;;;4.37;1.13;;;12.90;99.90;;;;;;4994611;28;20223;-59
2024/02/13 11:42:32;;;;;;;1.33;0.70;;;13.00;99.90;;;;;;4994551;28;20233;-60
2024/02/13 11:45:22;;;;;;;1.33;0.90;;;13.00;99.90;;;;;;4992712;28;20721;-59
2024/02/13 11:47:50;;;;;;;1.80;0.67;;;12.90;99.90;;;;;;5001326;28;20194;-59
2024/02/13 11:50:18;;;;;;;1.60;0.87;;;13.00;99.90;;;;;;5014104;28;20228;-59
2024/02/13 11:52:47;;;;;;;1.13;0.60;;;13.00;99.90;;;;;;5011298;28;20771;-59
2024/02/13 11:55:15;;;;;;;2.20;0.80;;;13.00;99.90;;;;;;5013938;28;20706;-59
2024/02/13 11:57:45;;;;;;;3.93;0.93;;;13.00;99.90;;;;;;5011871;28;20213;-59
2024/02/13 12:00:18;;;;;;;2.83;0.83;;;12.60;99.90;;;;;;5014393;28;20269;-60
2024/02/13 12:02:47;;;;;;;6.60;1.00;;;12.80;99.90;;;;;;5013524;28;20267;-59
2024/02/13 12:05:19;;;;;;;3.80;0.60;;;12.60;99.90;;;;;;5014008;28;20231;-59
2024/02/13 12:07:46;;;;;;;2.93;0.80;;;;;;;;;;5017763;28;20216;-59
2024/02/13 12:10:14;;;;;;;1.23;0.90;;;12.30;99.90;;;;;;5013258;28;20234;-59
2024/02/13 12:12:42;;;;;;;2.87;0.83;;;;;;;;;;5013052;28;20199;-59
2024/02/13 12:15:10;;;;;;;2.20;1.10;;;;;;;;;;5013192;28;20208;-59
2024/02/13 12:17:38;;;;;;;3.90;1.10;;;;;;;;;;5013395;28;20589;-59
2024/02/13 12:20:12;;;;;;;3.13;0.90;;;;;;;;;;5013135;28;20225;-59
2024/02/13 12:22:44;;;;;;;1.60;0.80;;;11.60;99.90;;;;;;5012404;28;20203;-59
2024/02/13 12:25:12;;;;;;;1.13;0.83;;;11.50;99.90;;;;;;5013276;28;20221;-59
2024/02/13 12:27:39;;;;;;;6.93;1.43;;;11.40;99.90;;;;;;5013228;28;20296;-59
2024/02/13 12:30:11;;;;;;;0.73;0.60;;;11.20;99.90;;;;;;5013422;28;20221;-59
2024/02/13 12:32:38;;;;;;;1.77;0.40;;;11.20;99.90;;;;;;5013050;28;20617;-59
2024/02/13 12:35:21;;;;;;;1.77;0.97;;;11.20;99.90;;;;;;5012067;28;20201;-59
2024/02/13 12:37:51;;;;;;;1.30;0.60;;;11.10;99.90;;;;;;5005197;28;20233;-59
2024/02/13 12:40:20;;;;;;;2.70;0.50;;;11.20;99.90;;;;;;4993870;28;20316;-59
2024/02/13 12:42:47;;;;;;;3.33;0.40;;;11.10;99.90;;;;;;4992665;28;20256;-59
2024/02/13 12:45:14;;;;;;;0.93;0.60;;;11.10;99.90;;;;;;4993653;28;20657;-59
2024/02/13 12:47:42;;;;;;;1.30;0.60;;;11.10;99.90;;;;;;4993850;28;20204;-59
2024/02/13 12:50:16;;;;;;;4.53;0.70;;;11.10;99.90;;;;;;4993490;28;20227;-59
2024/02/13 12:52:44;;;;;;;2.97;0.77;;;;;;;;;;4992140;28;20216;-58
2024/02/13 12:55:15;;;;;;;0.87;0.63;;;11.30;99.90;;;;;;4995795;28;20624;-59
2024/02/13 12:57:42;;;;;;;1.83;1.07;;;11.40;99.90;;;;;;4992832;28;20258;-59
2024/02/13 13:00:16;;;;;;;2.50;0.80;;;11.20;99.90;;;;;;4992644;28;20238;-59
2024/02/13 13:02:43;;;;;;;1.77;1.13;;;11.50;99.90;;;;;;4992331;28;20211;-59
2024/02/13 13:05:13;;;;;;;2.57;1.03;;;11.50;99.90;;;;;;4992846;28;20227;-60
2024/02/13 13:07:42;;;;;;;3.50;0.83;;;11.50;99.90;;;;;;4994306;28;20303;-59
2024/02/13 13:10:13;;;;;;;2.03;0.50;;;11.50;99.90;;;;;;5012308;28;20269;-59
2024/02/13 13:12:44;;;;;;;2.17;0.77;;;11.50;99.90;;;;;;5012188;28;20203;-59
2024/02/13 13:15:11;;;;;;;2.57;0.87;;;11.40;99.90;;;;;;5012355;28;20702;-59
2024/02/13 13:17:41;;;;;;;1.03;0.70;;;;;;;;;;5012183;28;20296;-59
2024/02/13 13:20:13;;;;;;;2.00;0.50;;;;;;;;;;5012713;28;20232;-59
2024/02/13 13:22:41;;;;;;;1.57;0.50;;;;;;;;;;5012674;28;20231;-59
2024/02/13 13:25:12;;;;;;;2.30;0.60;;;11.30;99.90;;;;;;5010976;28;20658;-59
2024/02/13 13:27:40;;;;;;;1.20;0.80;;;;;;;;;;5012285;28;20205;-59
2024/02/13 13:30:15;;;;;;;2.57;0.83;;;11.20;99.90;;;;;;5012248;28;20230;-59
2024/02/13 13:32:44;;;;;;;3.47;1.33;;;11.30;99.90;;;;;;5011758;28;20620;-59